sensor_id;sensor_type;location;lat;lon;timestamp;P1;durP1;ratioP1;P2;durP2;ratioP2
69750;SDS011;57335;52.288;6.056;2023-06-22T00:02:19;16.42;;;8.48;;
69750;SDS011;57335;52.288;6.056;2023-06-22T00:04:45;16.50;;;8.27;;
69750;SDS011;57335;52.288;6.056;2023-06-22T00:07:12;15.73;;;8.23;;
69750;SDS011;57335;52.288;6.056;2023-06-22T00:09:38;19.50;;;8.85;;
69750;SDS011;57335;52.288;6.056;2023-06-22T00:12:05;17.58;;;8.23;;
69750;SDS011;57335;52.288;6.056;2023-06-22T00:14:31;14.52;;;7.70;;
69750;SDS011;57335;52.288;6.056;2023-06-22T00:16:58;17.90;;;8.77;;
69750;SDS011;57335;52.288;6.056;2023-06-22T00:19:24;17.15;;;8.13;;
69750;SDS011;57335;52.288;6.056;2023-06-22T00:21:51;14.68;;;7.45;;
69750;SDS011;57335;52.288;6.056;2023-06-22T00:24:18;14.63;;;7.18;;
69750;SDS011;57335;52.288;6.056;2023-06-22T00:26:50;13.90;;;6.82;;
69750;SDS011;57335;52.288;6.056;2023-06-22T00:29:16;12.98;;;6.85;;
69750;SDS011;57335;52.288;6.056;2023-06-22T00:31:43;14.65;;;8.25;;
69750;SDS011;57335;52.288;6.056;2023-06-22T00:34:09;15.48;;;7.88;;
69750;SDS011;57335;52.288;6.056;2023-06-22T00:36:36;17.60;;;8.27;;
69750;SDS011;57335;52.288;6.056;2023-06-22T00:39:02;17.65;;;8.00;;
69750;SDS011;57335;52.288;6.056;2023-06-22T00:41:29;15.10;;;7.97;;
69750;SDS011;57335;52.288;6.056;2023-06-22T00:43:56;13.38;;;7.13;;
69750;SDS011;57335;52.288;6.056;2023-06-22T00:46:22;18.48;;;9.02;;
69750;SDS011;57335;52.288;6.056;2023-06-22T00:48:50;16.48;;;8.43;;
69750;SDS011;57335;52.288;6.056;2023-06-22T00:51:18;13.90;;;7.63;;
69750;SDS011;57335;52.288;6.056;2023-06-22T00:53:45;17.88;;;8.18;;
69750;SDS011;57335;52.288;6.056;2023-06-22T00:56:11;14.02;;;7.38;;
69750;SDS011;57335;52.288;6.056;2023-06-22T00:58:38;16.70;;;8.20;;
69750;SDS011;57335;52.288;6.056;2023-06-22T01:01:05;13.52;;;7.13;;
69750;SDS011;57335;52.288;6.056;2023-06-22T01:03:31;14.35;;;7.72;;
69750;SDS011;57335;52.288;6.056;2023-06-22T01:05:59;13.57;;;7.32;;
69750;SDS011;57335;52.288;6.056;2023-06-22T01:09:09;15.15;;;7.53;;
69750;SDS011;57335;52.288;6.056;2023-06-22T01:11:48;14.05;;;7.07;;
69750;SDS011;57335;52.288;6.056;2023-06-22T01:16:54;16.08;;;7.57;;
69750;SDS011;57335;52.288;6.056;2023-06-22T01:22:18;14.88;;;7.72;;
69750;SDS011;57335;52.288;6.056;2023-06-22T01:24:55;15.00;;;8.35;;
69750;SDS011;57335;52.288;6.056;2023-06-22T01:30:02;14.43;;;7.53;;
69750;SDS011;57335;52.288;6.056;2023-06-22T01:32:31;14.32;;;7.00;;
69750;SDS011;57335;52.288;6.056;2023-06-22T01:35:00;16.05;;;8.70;;
69750;SDS011;57335;52.288;6.056;2023-06-22T01:37:29;16.15;;;8.00;;
69750;SDS011;57335;52.288;6.056;2023-06-22T01:39:56;15.18;;;7.60;;
69750;SDS011;57335;52.288;6.056;2023-06-22T01:42:24;13.60;;;6.90;;
69750;SDS011;57335;52.288;6.056;2023-06-22T01:44:52;14.82;;;7.90;;
69750;SDS011;57335;52.288;6.056;2023-06-22T01:47:22;16.38;;;8.38;;
69750;SDS011;57335;52.288;6.056;2023-06-22T01:49:50;16.77;;;8.13;;
69750;SDS011;57335;52.288;6.056;2023-06-22T01:52:18;11.57;;;6.43;;
69750;SDS011;57335;52.288;6.056;2023-06-22T01:54:45;11.43;;;5.95;;
69750;SDS011;57335;52.288;6.056;2023-06-22T01:57:11;12.00;;;6.50;;
69750;SDS011;57335;52.288;6.056;2023-06-22T01:59:39;10.27;;;5.38;;
69750;SDS011;57335;52.288;6.056;2023-06-22T02:02:15;11.05;;;5.90;;
69750;SDS011;57335;52.288;6.056;2023-06-22T02:04:50;8.52;;;4.45;;
69750;SDS011;57335;52.288;6.056;2023-06-22T02:07:23;9.95;;;4.80;;
69750;SDS011;57335;52.288;6.056;2023-06-22T02:09:50;9.85;;;4.30;;
69750;SDS011;57335;52.288;6.056;2023-06-22T02:12:24;10.60;;;4.50;;
69750;SDS011;57335;52.288;6.056;2023-06-22T02:14:52;12.52;;;5.03;;
69750;SDS011;57335;52.288;6.056;2023-06-22T02:17:18;9.40;;;4.55;;
69750;SDS011;57335;52.288;6.056;2023-06-22T02:19:46;11.77;;;4.88;;
69750;SDS011;57335;52.288;6.056;2023-06-22T02:22:12;13.52;;;6.00;;
69750;SDS011;57335;52.288;6.056;2023-06-22T02:24:39;12.13;;;5.40;;
69750;SDS011;57335;52.288;6.056;2023-06-22T02:27:05;10.38;;;4.78;;
69750;SDS011;57335;52.288;6.056;2023-06-22T02:29:32;12.88;;;5.97;;
69750;SDS011;57335;52.288;6.056;2023-06-22T02:31:59;13.55;;;5.88;;
69750;SDS011;57335;52.288;6.056;2023-06-22T02:34:25;13.35;;;5.53;;
69750;SDS011;57335;52.288;6.056;2023-06-22T02:36:52;13.73;;;5.97;;
69750;SDS011;57335;52.288;6.056;2023-06-22T02:39:22;16.40;;;6.40;;
69750;SDS011;57335;52.288;6.056;2023-06-22T02:41:50;17.17;;;7.93;;
69750;SDS011;57335;52.288;6.056;2023-06-22T02:44:17;13.65;;;6.60;;
69750;SDS011;57335;52.288;6.056;2023-06-22T02:46:45;13.45;;;6.53;;
69750;SDS011;57335;52.288;6.056;2023-06-22T02:49:12;15.73;;;6.93;;
69750;SDS011;57335;52.288;6.056;2023-06-22T02:51:41;17.25;;;8.55;;
69750;SDS011;57335;52.288;6.056;2023-06-22T02:54:08;17.23;;;7.50;;
69750;SDS011;57335;52.288;6.056;2023-06-22T02:56:35;16.25;;;7.65;;
69750;SDS011;57335;52.288;6.056;2023-06-22T02:59:01;17.00;;;7.43;;
69750;SDS011;57335;52.288;6.056;2023-06-22T03:01:28;20.33;;;9.35;;
69750;SDS011;57335;52.288;6.056;2023-06-22T03:03:58;18.70;;;8.77;;
69750;SDS011;57335;52.288;6.056;2023-06-22T03:06:25;17.88;;;8.55;;
69750;SDS011;57335;52.288;6.056;2023-06-22T03:08:51;18.45;;;8.95;;
69750;SDS011;57335;52.288;6.056;2023-06-22T03:11:18;17.23;;;8.38;;
69750;SDS011;57335;52.288;6.056;2023-06-22T03:13:44;17.15;;;7.32;;
69750;SDS011;57335;52.288;6.056;2023-06-22T03:16:11;18.77;;;8.68;;
69750;SDS011;57335;52.288;6.056;2023-06-22T03:18:37;17.55;;;8.38;;
69750;SDS011;57335;52.288;6.056;2023-06-22T03:21:03;15.43;;;7.00;;
69750;SDS011;57335;52.288;6.056;2023-06-22T03:23:30;23.48;;;11.05;;
69750;SDS011;57335;52.288;6.056;2023-06-22T03:25:57;17.70;;;7.93;;
69750;SDS011;57335;52.288;6.056;2023-06-22T03:28:23;16.38;;;8.00;;
69750;SDS011;57335;52.288;6.056;2023-06-22T03:30:50;17.30;;;8.90;;
69750;SDS011;57335;52.288;6.056;2023-06-22T03:33:16;19.42;;;9.30;;
69750;SDS011;57335;52.288;6.056;2023-06-22T03:35:42;20.20;;;9.07;;
69750;SDS011;57335;52.288;6.056;2023-06-22T03:38:09;18.38;;;9.07;;
69750;SDS011;57335;52.288;6.056;2023-06-22T03:40:35;19.88;;;8.70;;
69750;SDS011;57335;52.288;6.056;2023-06-22T03:43:02;18.65;;;8.77;;
69750;SDS011;57335;52.288;6.056;2023-06-22T03:45:28;22.88;;;9.57;;
69750;SDS011;57335;52.288;6.056;2023-06-22T03:47:55;18.45;;;8.48;;
69750;SDS011;57335;52.288;6.056;2023-06-22T03:50:21;17.33;;;7.97;;
69750;SDS011;57335;52.288;6.056;2023-06-22T03:52:48;18.75;;;9.98;;
69750;SDS011;57335;52.288;6.056;2023-06-22T03:55:14;22.50;;;9.90;;
69750;SDS011;57335;52.288;6.056;2023-06-22T03:57:41;16.02;;;8.30;;
69750;SDS011;57335;52.288;6.056;2023-06-22T04:00:07;15.25;;;7.35;;
69750;SDS011;57335;52.288;6.056;2023-06-22T04:02:34;17.70;;;8.07;;
69750;SDS011;57335;52.288;6.056;2023-06-22T04:05:01;19.50;;;8.73;;
69750;SDS011;57335;52.288;6.056;2023-06-22T04:07:30;24.92;;;12.10;;
69750;SDS011;57335;52.288;6.056;2023-06-22T04:09:56;33.53;;;14.10;;
69750;SDS011;57335;52.288;6.056;2023-06-22T04:12:23;29.73;;;13.60;;
69750;SDS011;57335;52.288;6.056;2023-06-22T04:14:49;27.70;;;13.88;;
69750;SDS011;57335;52.288;6.056;2023-06-22T04:17:16;29.50;;;13.18;;
69750;SDS011;57335;52.288;6.056;2023-06-22T04:19:42;38.17;;;13.80;;
69750;SDS011;57335;52.288;6.056;2023-06-22T04:22:09;34.42;;;15.38;;
69750;SDS011;57335;52.288;6.056;2023-06-22T04:24:35;37.27;;;16.33;;
69750;SDS011;57335;52.288;6.056;2023-06-22T04:27:01;35.92;;;17.05;;
69750;SDS011;57335;52.288;6.056;2023-06-22T04:29:31;36.55;;;16.80;;
69750;SDS011;57335;52.288;6.056;2023-06-22T04:31:57;42.10;;;20.30;;
69750;SDS011;57335;52.288;6.056;2023-06-22T04:34:24;46.10;;;21.85;;
69750;SDS011;57335;52.288;6.056;2023-06-22T04:36:51;61.20;;;25.83;;
69750;SDS011;57335;52.288;6.056;2023-06-22T04:39:17;66.65;;;26.58;;
69750;SDS011;57335;52.288;6.056;2023-06-22T04:41:44;102.20;;;34.95;;
69750;SDS011;57335;52.288;6.056;2023-06-22T04:44:14;72.13;;;29.88;;
69750;SDS011;57335;52.288;6.056;2023-06-22T04:46:41;82.38;;;33.20;;
69750;SDS011;57335;52.288;6.056;2023-06-22T04:49:08;93.78;;;36.63;;
69750;SDS011;57335;52.288;6.056;2023-06-22T04:51:42;95.10;;;34.38;;
69750;SDS011;57335;52.288;6.056;2023-06-22T04:54:09;75.70;;;33.30;;
69750;SDS011;57335;52.288;6.056;2023-06-22T04:56:35;64.50;;;30.73;;
69750;SDS011;57335;52.288;6.056;2023-06-22T04:59:02;59.55;;;29.23;;
69750;SDS011;57335;52.288;6.056;2023-06-22T05:01:29;63.13;;;30.50;;
69750;SDS011;57335;52.288;6.056;2023-06-22T05:03:56;68.85;;;31.23;;
69750;SDS011;57335;52.288;6.056;2023-06-22T05:06:23;65.30;;;31.95;;
69750;SDS011;57335;52.288;6.056;2023-06-22T05:08:53;54.42;;;28.95;;
69750;SDS011;57335;52.288;6.056;2023-06-22T05:11:20;54.60;;;28.17;;
69750;SDS011;57335;52.288;6.056;2023-06-22T05:13:47;52.08;;;28.75;;
69750;SDS011;57335;52.288;6.056;2023-06-22T05:16:13;48.03;;;27.23;;
69750;SDS011;57335;52.288;6.056;2023-06-22T05:18:40;49.78;;;26.08;;
69750;SDS011;57335;52.288;6.056;2023-06-22T05:21:06;47.58;;;26.05;;
69750;SDS011;57335;52.288;6.056;2023-06-22T05:23:33;45.95;;;25.67;;
69750;SDS011;57335;52.288;6.056;2023-06-22T05:25:59;42.40;;;25.25;;
69750;SDS011;57335;52.288;6.056;2023-06-22T05:28:26;42.22;;;24.35;;
69750;SDS011;57335;52.288;6.056;2023-06-22T05:30:52;41.42;;;23.83;;
69750;SDS011;57335;52.288;6.056;2023-06-22T05:33:19;39.63;;;24.75;;
69750;SDS011;57335;52.288;6.056;2023-06-22T05:35:46;37.45;;;23.25;;
69750;SDS011;57335;52.288;6.056;2023-06-22T05:38:13;39.22;;;23.55;;
69750;SDS011;57335;52.288;6.056;2023-06-22T05:40:40;38.92;;;24.17;;
69750;SDS011;57335;52.288;6.056;2023-06-22T05:43:06;36.53;;;24.27;;
69750;SDS011;57335;52.288;6.056;2023-06-22T05:45:32;38.28;;;24.30;;
69750;SDS011;57335;52.288;6.056;2023-06-22T05:47:59;37.88;;;23.70;;
69750;SDS011;57335;52.288;6.056;2023-06-22T05:50:25;33.20;;;21.92;;
69750;SDS011;57335;52.288;6.056;2023-06-22T05:52:52;33.28;;;21.98;;
69750;SDS011;57335;52.288;6.056;2023-06-22T05:55:18;32.40;;;22.02;;
69750;SDS011;57335;52.288;6.056;2023-06-22T05:57:45;32.72;;;23.98;;
69750;SDS011;57335;52.288;6.056;2023-06-22T06:00:12;33.45;;;22.02;;
69750;SDS011;57335;52.288;6.056;2023-06-22T06:02:39;30.92;;;21.60;;
69750;SDS011;57335;52.288;6.056;2023-06-22T06:05:05;32.42;;;22.10;;
69750;SDS011;57335;52.288;6.056;2023-06-22T06:07:32;31.58;;;21.40;;
69750;SDS011;57335;52.288;6.056;2023-06-22T06:09:58;28.65;;;20.75;;
69750;SDS011;57335;52.288;6.056;2023-06-22T06:12:25;32.45;;;21.48;;
69750;SDS011;57335;52.288;6.056;2023-06-22T06:14:51;27.23;;;20.13;;
69750;SDS011;57335;52.288;6.056;2023-06-22T06:17:18;28.00;;;18.92;;
69750;SDS011;57335;52.288;6.056;2023-06-22T06:19:44;25.92;;;18.40;;
69750;SDS011;57335;52.288;6.056;2023-06-22T06:22:11;24.88;;;17.63;;
69750;SDS011;57335;52.288;6.056;2023-06-22T06:24:37;22.85;;;16.40;;
69750;SDS011;57335;52.288;6.056;2023-06-22T06:27:04;20.88;;;15.70;;
69750;SDS011;57335;52.288;6.056;2023-06-22T06:29:31;21.20;;;14.45;;
69750;SDS011;57335;52.288;6.056;2023-06-22T06:31:58;20.15;;;14.05;;
69750;SDS011;57335;52.288;6.056;2023-06-22T06:34:24;20.98;;;14.43;;
69750;SDS011;57335;52.288;6.056;2023-06-22T06:36:51;19.70;;;13.68;;
69750;SDS011;57335;52.288;6.056;2023-06-22T06:39:17;18.90;;;13.13;;
69750;SDS011;57335;52.288;6.056;2023-06-22T06:41:44;18.95;;;12.82;;
69750;SDS011;57335;52.288;6.056;2023-06-22T06:44:10;18.55;;;13.40;;
69750;SDS011;57335;52.288;6.056;2023-06-22T06:46:37;17.02;;;12.90;;
69750;SDS011;57335;52.288;6.056;2023-06-22T06:49:03;18.38;;;12.77;;
69750;SDS011;57335;52.288;6.056;2023-06-22T06:51:30;17.63;;;12.45;;
69750;SDS011;57335;52.288;6.056;2023-06-22T06:53:56;17.60;;;12.48;;
69750;SDS011;57335;52.288;6.056;2023-06-22T06:56:23;19.08;;;11.93;;
69750;SDS011;57335;52.288;6.056;2023-06-22T06:58:49;16.00;;;12.50;;
69750;SDS011;57335;52.288;6.056;2023-06-22T07:01:17;16.55;;;10.98;;
69750;SDS011;57335;52.288;6.056;2023-06-22T07:03:47;16.23;;;10.98;;
69750;SDS011;57335;52.288;6.056;2023-06-22T07:06:13;17.70;;;11.50;;
69750;SDS011;57335;52.288;6.056;2023-06-22T07:08:40;14.25;;;10.32;;
69750;SDS011;57335;52.288;6.056;2023-06-22T07:11:06;15.80;;;10.68;;
69750;SDS011;57335;52.288;6.056;2023-06-22T07:13:33;14.90;;;10.13;;
69750;SDS011;57335;52.288;6.056;2023-06-22T07:15:59;16.40;;;10.45;;
69750;SDS011;57335;52.288;6.056;2023-06-22T07:18:26;15.40;;;11.27;;
69750;SDS011;57335;52.288;6.056;2023-06-22T07:20:52;15.18;;;11.63;;
69750;SDS011;57335;52.288;6.056;2023-06-22T07:23:18;15.32;;;11.27;;
69750;SDS011;57335;52.288;6.056;2023-06-22T07:25:45;16.40;;;11.70;;
69750;SDS011;57335;52.288;6.056;2023-06-22T07:28:11;15.80;;;11.88;;
69750;SDS011;57335;52.288;6.056;2023-06-22T07:30:38;14.77;;;10.63;;
69750;SDS011;57335;52.288;6.056;2023-06-22T07:33:04;16.10;;;11.70;;
69750;SDS011;57335;52.288;6.056;2023-06-22T07:35:31;14.60;;;10.60;;
69750;SDS011;57335;52.288;6.056;2023-06-22T07:37:59;15.68;;;10.57;;
69750;SDS011;57335;52.288;6.056;2023-06-22T07:40:31;13.35;;;9.75;;
69750;SDS011;57335;52.288;6.056;2023-06-22T07:42:58;14.63;;;10.55;;
69750;SDS011;57335;52.288;6.056;2023-06-22T07:45:24;14.35;;;10.70;;
69750;SDS011;57335;52.288;6.056;2023-06-22T07:47:51;13.23;;;9.25;;
69750;SDS011;57335;52.288;6.056;2023-06-22T07:50:17;13.80;;;9.85;;
69750;SDS011;57335;52.288;6.056;2023-06-22T07:52:44;13.85;;;9.70;;
69750;SDS011;57335;52.288;6.056;2023-06-22T07:55:10;14.02;;;10.23;;
69750;SDS011;57335;52.288;6.056;2023-06-22T07:57:37;12.82;;;8.80;;
69750;SDS011;57335;52.288;6.056;2023-06-22T08:00:04;12.55;;;8.80;;
69750;SDS011;57335;52.288;6.056;2023-06-22T08:02:31;12.10;;;8.57;;
69750;SDS011;57335;52.288;6.056;2023-06-22T08:04:58;12.82;;;8.93;;
69750;SDS011;57335;52.288;6.056;2023-06-22T08:07:40;12.48;;;8.80;;
69750;SDS011;57335;52.288;6.056;2023-06-22T08:10:10;14.00;;;8.60;;
69750;SDS011;57335;52.288;6.056;2023-06-22T08:12:38;13.63;;;8.75;;
69750;SDS011;57335;52.288;6.056;2023-06-22T08:15:05;13.10;;;9.18;;
69750;SDS011;57335;52.288;6.056;2023-06-22T08:17:32;12.15;;;8.05;;
69750;SDS011;57335;52.288;6.056;2023-06-22T08:19:59;12.98;;;8.90;;
69750;SDS011;57335;52.288;6.056;2023-06-22T08:22:25;12.88;;;8.57;;
69750;SDS011;57335;52.288;6.056;2023-06-22T08:24:52;12.93;;;8.90;;
69750;SDS011;57335;52.288;6.056;2023-06-22T08:27:18;12.82;;;8.88;;
69750;SDS011;57335;52.288;6.056;2023-06-22T08:29:45;13.82;;;8.50;;
69750;SDS011;57335;52.288;6.056;2023-06-22T08:32:11;13.32;;;8.45;;
69750;SDS011;57335;52.288;6.056;2023-06-22T08:34:38;12.38;;;8.13;;
69750;SDS011;57335;52.288;6.056;2023-06-22T08:37:04;10.77;;;7.25;;
69750;SDS011;57335;52.288;6.056;2023-06-22T08:39:31;13.27;;;8.40;;
69750;SDS011;57335;52.288;6.056;2023-06-22T08:42:01;15.80;;;7.88;;
69750;SDS011;57335;52.288;6.056;2023-06-22T08:44:27;14.18;;;8.38;;
69750;SDS011;57335;52.288;6.056;2023-06-22T08:46:54;13.45;;;7.95;;
69750;SDS011;57335;52.288;6.056;2023-06-22T08:49:20;13.48;;;8.20;;
69750;SDS011;57335;52.288;6.056;2023-06-22T08:51:47;13.30;;;7.07;;
69750;SDS011;57335;52.288;6.056;2023-06-22T08:54:14;12.35;;;7.10;;
69750;SDS011;57335;52.288;6.056;2023-06-22T08:56:41;20.08;;;8.27;;
69750;SDS011;57335;52.288;6.056;2023-06-22T08:59:07;12.02;;;8.23;;
69750;SDS011;57335;52.288;6.056;2023-06-22T09:01:34;11.40;;;7.43;;
69750;SDS011;57335;52.288;6.056;2023-06-22T09:04:00;14.07;;;10.02;;
69750;SDS011;57335;52.288;6.056;2023-06-22T09:06:27;14.25;;;10.15;;
69750;SDS011;57335;52.288;6.056;2023-06-22T09:08:53;14.32;;;9.23;;
69750;SDS011;57335;52.288;6.056;2023-06-22T09:11:20;13.88;;;9.23;;
69750;SDS011;57335;52.288;6.056;2023-06-22T09:13:46;14.88;;;9.32;;
69750;SDS011;57335;52.288;6.056;2023-06-22T09:16:13;13.82;;;8.45;;
69750;SDS011;57335;52.288;6.056;2023-06-22T09:18:39;14.65;;;9.20;;
69750;SDS011;57335;52.288;6.056;2023-06-22T09:21:05;13.50;;;8.57;;
69750;SDS011;57335;52.288;6.056;2023-06-22T09:23:32;13.15;;;8.80;;
69750;SDS011;57335;52.288;6.056;2023-06-22T09:25:59;14.23;;;9.27;;
69750;SDS011;57335;52.288;6.056;2023-06-22T09:28:25;14.35;;;8.50;;
69750;SDS011;57335;52.288;6.056;2023-06-22T09:30:52;13.48;;;8.70;;
69750;SDS011;57335;52.288;6.056;2023-06-22T09:33:18;12.68;;;7.90;;
69750;SDS011;57335;52.288;6.056;2023-06-22T09:35:45;13.57;;;8.68;;
69750;SDS011;57335;52.288;6.056;2023-06-22T09:38:11;12.20;;;8.52;;
69750;SDS011;57335;52.288;6.056;2023-06-22T09:40:38;15.73;;;8.40;;
69750;SDS011;57335;52.288;6.056;2023-06-22T09:43:04;13.27;;;8.45;;
69750;SDS011;57335;52.288;6.056;2023-06-22T09:45:30;13.73;;;8.93;;
69750;SDS011;57335;52.288;6.056;2023-06-22T09:47:57;13.50;;;8.63;;
69750;SDS011;57335;52.288;6.056;2023-06-22T09:50:23;13.65;;;7.68;;
69750;SDS011;57335;52.288;6.056;2023-06-22T09:52:50;14.45;;;8.48;;
69750;SDS011;57335;52.288;6.056;2023-06-22T09:55:16;13.48;;;8.52;;
69750;SDS011;57335;52.288;6.056;2023-06-22T09:57:43;13.13;;;8.40;;
69750;SDS011;57335;52.288;6.056;2023-06-22T10:00:09;15.00;;;7.68;;
69750;SDS011;57335;52.288;6.056;2023-06-22T10:02:36;14.65;;;8.13;;
69750;SDS011;57335;52.288;6.056;2023-06-22T10:05:03;14.85;;;8.75;;
69750;SDS011;57335;52.288;6.056;2023-06-22T10:07:30;13.93;;;8.40;;
69750;SDS011;57335;52.288;6.056;2023-06-22T10:09:57;12.13;;;7.38;;
69750;SDS011;57335;52.288;6.056;2023-06-22T10:12:23;13.50;;;8.75;;
69750;SDS011;57335;52.288;6.056;2023-06-22T10:14:50;14.48;;;8.52;;
69750;SDS011;57335;52.288;6.056;2023-06-22T10:17:16;14.50;;;9.18;;
69750;SDS011;57335;52.288;6.056;2023-06-22T10:19:43;12.65;;;8.07;;
69750;SDS011;57335;52.288;6.056;2023-06-22T10:22:10;14.77;;;9.15;;
69750;SDS011;57335;52.288;6.056;2023-06-22T10:24:36;13.52;;;8.18;;
69750;SDS011;57335;52.288;6.056;2023-06-22T10:27:03;13.30;;;8.07;;
69750;SDS011;57335;52.288;6.056;2023-06-22T10:29:29;14.07;;;8.48;;
69750;SDS011;57335;52.288;6.056;2023-06-22T10:31:56;12.68;;;8.20;;
69750;SDS011;57335;52.288;6.056;2023-06-22T10:34:22;14.32;;;8.43;;
69750;SDS011;57335;52.288;6.056;2023-06-22T10:36:49;14.63;;;10.07;;
69750;SDS011;57335;52.288;6.056;2023-06-22T10:39:15;14.73;;;8.82;;
69750;SDS011;57335;52.288;6.056;2023-06-22T10:41:41;14.15;;;8.30;;
69750;SDS011;57335;52.288;6.056;2023-06-22T10:44:08;12.80;;;7.90;;
69750;SDS011;57335;52.288;6.056;2023-06-22T10:46:35;12.38;;;7.43;;
69750;SDS011;57335;52.288;6.056;2023-06-22T10:49:01;13.63;;;7.65;;
69750;SDS011;57335;52.288;6.056;2023-06-22T10:51:28;12.93;;;7.55;;
69750;SDS011;57335;52.288;6.056;2023-06-22T10:53:54;12.63;;;7.57;;
69750;SDS011;57335;52.288;6.056;2023-06-22T10:56:21;14.57;;;8.13;;
69750;SDS011;57335;52.288;6.056;2023-06-22T10:58:47;13.02;;;8.13;;
69750;SDS011;57335;52.288;6.056;2023-06-22T11:01:14;13.50;;;9.05;;
69750;SDS011;57335;52.288;6.056;2023-06-22T11:04:00;14.57;;;8.40;;
69750;SDS011;57335;52.288;6.056;2023-06-22T11:06:27;13.38;;;7.80;;
69750;SDS011;57335;52.288;6.056;2023-06-22T11:08:53;13.95;;;7.95;;
69750;SDS011;57335;52.288;6.056;2023-06-22T11:11:32;12.43;;;7.70;;
69750;SDS011;57335;52.288;6.056;2023-06-22T11:13:58;14.68;;;8.30;;
69750;SDS011;57335;52.288;6.056;2023-06-22T11:16:25;13.95;;;7.30;;
69750;SDS011;57335;52.288;6.056;2023-06-22T11:18:51;13.32;;;7.22;;
69750;SDS011;57335;52.288;6.056;2023-06-22T11:21:18;14.15;;;7.53;;
69750;SDS011;57335;52.288;6.056;2023-06-22T11:23:44;14.77;;;7.63;;
69750;SDS011;57335;52.288;6.056;2023-06-22T11:26:11;13.77;;;8.45;;
69750;SDS011;57335;52.288;6.056;2023-06-22T11:28:38;13.32;;;8.88;;
69750;SDS011;57335;52.288;6.056;2023-06-22T11:31:04;12.65;;;7.88;;
69750;SDS011;57335;52.288;6.056;2023-06-22T11:33:50;13.85;;;7.78;;
69750;SDS011;57335;52.288;6.056;2023-06-22T11:36:17;12.88;;;7.28;;
69750;SDS011;57335;52.288;6.056;2023-06-22T11:38:43;13.00;;;7.80;;
69750;SDS011;57335;52.288;6.056;2023-06-22T11:41:10;13.48;;;7.65;;
69750;SDS011;57335;52.288;6.056;2023-06-22T11:43:36;13.73;;;7.82;;
69750;SDS011;57335;52.288;6.056;2023-06-22T11:46:03;13.00;;;8.02;;
69750;SDS011;57335;52.288;6.056;2023-06-22T11:48:30;13.68;;;7.65;;
69750;SDS011;57335;52.288;6.056;2023-06-22T11:50:56;14.20;;;8.45;;
69750;SDS011;57335;52.288;6.056;2023-06-22T11:53:26;17.05;;;9.27;;
69750;SDS011;57335;52.288;6.056;2023-06-22T11:55:53;14.20;;;8.50;;
69750;SDS011;57335;52.288;6.056;2023-06-22T11:58:20;15.13;;;9.18;;
69750;SDS011;57335;52.288;6.056;2023-06-22T12:00:47;14.32;;;8.98;;
69750;SDS011;57335;52.288;6.056;2023-06-22T12:03:17;14.60;;;8.70;;
69750;SDS011;57335;52.288;6.056;2023-06-22T12:05:44;13.65;;;8.85;;
69750;SDS011;57335;52.288;6.056;2023-06-22T12:08:11;14.50;;;8.02;;
69750;SDS011;57335;52.288;6.056;2023-06-22T12:10:37;21.58;;;9.18;;
69750;SDS011;57335;52.288;6.056;2023-06-22T12:13:04;12.30;;;7.95;;
69750;SDS011;57335;52.288;6.056;2023-06-22T12:15:30;13.18;;;8.13;;
69750;SDS011;57335;52.288;6.056;2023-06-22T12:17:57;13.02;;;8.63;;
69750;SDS011;57335;52.288;6.056;2023-06-22T12:20:23;15.07;;;7.80;;
69750;SDS011;57335;52.288;6.056;2023-06-22T12:22:51;13.38;;;8.55;;
69750;SDS011;57335;52.288;6.056;2023-06-22T12:25:18;14.30;;;7.93;;
69750;SDS011;57335;52.288;6.056;2023-06-22T12:27:44;14.68;;;7.20;;
69750;SDS011;57335;52.288;6.056;2023-06-22T12:30:10;13.82;;;8.25;;
69750;SDS011;57335;52.288;6.056;2023-06-22T12:32:37;15.65;;;8.23;;
69750;SDS011;57335;52.288;6.056;2023-06-22T12:35:04;16.15;;;8.98;;
69750;SDS011;57335;52.288;6.056;2023-06-22T12:37:30;14.02;;;8.60;;
69750;SDS011;57335;52.288;6.056;2023-06-22T12:39:57;16.60;;;8.60;;
69750;SDS011;57335;52.288;6.056;2023-06-22T12:42:23;13.20;;;7.38;;
69750;SDS011;57335;52.288;6.056;2023-06-22T12:44:50;13.13;;;7.43;;
69750;SDS011;57335;52.288;6.056;2023-06-22T12:47:16;12.85;;;7.30;;
69750;SDS011;57335;52.288;6.056;2023-06-22T12:49:43;12.07;;;7.72;;
69750;SDS011;57335;52.288;6.056;2023-06-22T12:52:09;11.40;;;6.93;;
69750;SDS011;57335;52.288;6.056;2023-06-22T12:54:36;13.27;;;7.90;;
69750;SDS011;57335;52.288;6.056;2023-06-22T12:57:19;13.18;;;7.43;;
69750;SDS011;57335;52.288;6.056;2023-06-22T12:59:45;12.38;;;7.00;;
69750;SDS011;57335;52.288;6.056;2023-06-22T13:02:12;12.27;;;6.78;;
69750;SDS011;57335;52.288;6.056;2023-06-22T13:04:38;12.30;;;7.22;;
69750;SDS011;57335;52.288;6.056;2023-06-22T13:07:05;11.60;;;6.72;;
69750;SDS011;57335;52.288;6.056;2023-06-22T13:09:44;14.73;;;8.18;;
69750;SDS011;57335;52.288;6.056;2023-06-22T13:12:10;16.50;;;8.35;;
69750;SDS011;57335;52.288;6.056;2023-06-22T13:14:37;14.77;;;9.23;;
69750;SDS011;57335;52.288;6.056;2023-06-22T13:17:03;14.00;;;8.65;;
69750;SDS011;57335;52.288;6.056;2023-06-22T13:19:30;15.48;;;9.20;;
69750;SDS011;57335;52.288;6.056;2023-06-22T13:21:56;14.93;;;9.00;;
69750;SDS011;57335;52.288;6.056;2023-06-22T13:24:23;16.30;;;9.85;;
69750;SDS011;57335;52.288;6.056;2023-06-22T13:26:49;15.32;;;9.93;;
69750;SDS011;57335;52.288;6.056;2023-06-22T13:29:16;15.13;;;10.05;;
69750;SDS011;57335;52.288;6.056;2023-06-22T13:31:42;18.40;;;10.18;;
69750;SDS011;57335;52.288;6.056;2023-06-22T13:34:08;16.35;;;11.18;;
69750;SDS011;57335;52.288;6.056;2023-06-22T13:36:35;18.55;;;11.77;;
69750;SDS011;57335;52.288;6.056;2023-06-22T13:39:01;18.35;;;11.88;;
69750;SDS011;57335;52.288;6.056;2023-06-22T13:41:28;18.73;;;12.20;;
69750;SDS011;57335;52.288;6.056;2023-06-22T13:43:54;17.90;;;11.45;;
69750;SDS011;57335;52.288;6.056;2023-06-22T13:46:21;17.58;;;12.18;;
69750;SDS011;57335;52.288;6.056;2023-06-22T13:48:47;17.95;;;12.25;;
69750;SDS011;57335;52.288;6.056;2023-06-22T13:51:13;19.10;;;12.75;;
69750;SDS011;57335;52.288;6.056;2023-06-22T13:53:40;20.10;;;13.38;;
69750;SDS011;57335;52.288;6.056;2023-06-22T13:56:06;19.80;;;13.43;;
69750;SDS011;57335;52.288;6.056;2023-06-22T13:58:33;19.38;;;12.88;;
69750;SDS011;57335;52.288;6.056;2023-06-22T14:00:59;19.63;;;13.63;;
69750;SDS011;57335;52.288;6.056;2023-06-22T14:03:26;19.20;;;13.20;;
69750;SDS011;57335;52.288;6.056;2023-06-22T14:05:52;19.75;;;12.90;;
69750;SDS011;57335;52.288;6.056;2023-06-22T14:08:19;20.02;;;14.20;;
69750;SDS011;57335;52.288;6.056;2023-06-22T14:11:05;21.25;;;13.63;;
69750;SDS011;57335;52.288;6.056;2023-06-22T14:13:31;22.27;;;12.38;;
69750;SDS011;57335;52.288;6.056;2023-06-22T14:15:58;22.35;;;14.15;;
69750;SDS011;57335;52.288;6.056;2023-06-22T14:18:24;21.30;;;13.57;;
69750;SDS011;57335;52.288;6.056;2023-06-22T14:20:51;22.40;;;14.50;;
69750;SDS011;57335;52.288;6.056;2023-06-22T14:23:17;22.25;;;16.30;;
69750;SDS011;57335;52.288;6.056;2023-06-22T14:25:44;21.60;;;13.80;;
69750;SDS011;57335;52.288;6.056;2023-06-22T14:28:10;24.80;;;15.57;;
69750;SDS011;57335;52.288;6.056;2023-06-22T14:30:36;22.98;;;14.57;;
69750;SDS011;57335;52.288;6.056;2023-06-22T14:33:03;22.00;;;13.82;;
69750;SDS011;57335;52.288;6.056;2023-06-22T14:35:29;22.92;;;14.95;;
69750;SDS011;57335;52.288;6.056;2023-06-22T14:37:56;23.20;;;14.43;;
69750;SDS011;57335;52.288;6.056;2023-06-22T14:40:22;22.85;;;15.05;;